Time;durP1;ratioP1;P1;durP2;ratioP2;P2;SDS_P1;SDS_P2;PMS_P1;PMS_P2;Temp;Humidity;BMP_temperature;BMP_pressure;BME280_temperature;BME280_humidity;BME280_pressure;Samples;Min_cycle;Max_cycle;Signal;HPM_P1;HPM_P2
2023/04/04 00:01:55;;;;;;;8.03;7.33;;;1.30;99.90;;;;;;5049806;28;20182;-63
2023/04/04 00:04:21;;;;;;;7.63;7.30;;;1.20;99.90;;;;;;5053067;28;20167;-63
2023/04/04 00:06:47;;;;;;;7.47;6.97;;;1.10;99.90;;;;;;5050340;28;20694;-63
2023/04/04 00:09:12;;;;;;;7.17;6.87;;;1.10;99.90;;;;;;5052629;28;20540;-63
2023/04/04 00:11:39;;;;;;;8.17;7.33;;;1.10;99.90;;;;;;5043464;28;20176;-63
2023/04/04 00:14:05;;;;;;;7.53;7.10;;;1.10;99.90;;;;;;5032718;28;20190;-63
2023/04/04 00:16:31;;;;;;;7.30;6.90;;;1.10;99.90;;;;;;5040076;28;20557;-63
2023/04/04 00:18:56;;;;;;;7.60;6.90;;;1.10;99.90;;;;;;5052756;28;20175;-63
2023/04/04 00:21:24;;;;;;;7.57;7.27;;;1.10;99.90;;;;;;5046333;28;20179;-63
2023/04/04 00:23:50;;;;;;;14.73;6.97;;;1.10;99.90;;;;;;5032815;28;20336;-63
2023/04/04 00:26:16;;;;;;;7.20;6.90;;;1.00;99.90;;;;;;5036676;28;20278;-63
2023/04/04 00:28:42;;;;;;;6.73;6.43;;;1.00;99.90;;;;;;5052851;28;20701;-63
2023/04/04 00:31:08;;;;;;;7.33;6.97;;;1.00;99.90;;;;;;5039852;28;20207;-63
2023/04/04 00:33:33;;;;;;;7.03;6.73;;;0.90;99.90;;;;;;5032585;28;20570;-64
2023/04/04 00:35:59;;;;;;;7.33;7.00;;;0.90;99.90;;;;;;5042463;28;20212;-63
2023/04/04 00:38:25;;;;;;;7.20;6.80;;;0.90;99.90;;;;;;5052362;28;20181;-63
2023/04/04 00:40:51;;;;;;;6.40;6.10;;;0.90;99.90;;;;;;5043440;28;20179;-63
2023/04/04 00:43:17;;;;;;;7.10;6.60;;;1.00;99.90;;;;;;5032294;28;20649;-63
2023/04/04 00:45:43;;;;;;;6.53;6.23;;;1.00;99.90;;;;;;5038823;28;20235;-63
2023/04/04 00:48:09;;;;;;;6.73;6.43;;;1.00;99.90;;;;;;5052066;28;20171;-63
2023/04/04 00:50:35;;;;;;;6.17;5.90;;;1.00;99.90;;;;;;5046732;28;20175;-63
2023/04/04 00:53:00;;;;;;;6.70;6.17;;;1.00;99.90;;;;;;5032273;28;20167;-63
2023/04/04 00:55:26;;;;;;;6.90;6.43;;;1.00;99.90;;;;;;5034934;28;20256;-63
2023/04/04 00:57:52;;;;;;;7.10;6.50;;;1.00;99.90;;;;;;5051978;28;20182;-63
2023/04/04 01:00:18;;;;;;;6.63;6.33;;;0.90;99.90;;;;;;5049449;28;20167;-63
2023/04/04 01:02:44;;;;;;;7.47;6.90;;;0.90;99.90;;;;;;5033269;28;20222;-63
2023/04/04 01:05:10;;;;;;;6.83;6.53;;;0.90;99.90;;;;;;5031865;28;20191;-63
2023/04/04 01:07:36;;;;;;;6.60;6.30;;;0.90;99.90;;;;;;5032220;28;20321;-63
2023/04/04 01:10:04;;;;;;;7.07;6.77;;;0.90;99.90;;;;;;5031472;28;20259;-63
2023/04/04 01:12:30;;;;;;;6.53;6.27;;;0.90;99.90;;;;;;5049558;28;20185;-63
2023/04/04 01:14:56;;;;;;;6.90;6.60;;;0.80;99.90;;;;;;5051763;28;20270;-63
2023/04/04 01:17:23;;;;;;;6.37;6.07;;;0.80;99.90;;;;;;5035438;28;20688;-63
2023/04/04 01:20:01;;;;;;;6.90;6.60;;;0.80;99.90;;;;;;5031521;28;20175;-63
2023/04/04 01:22:29;;;;;;;6.90;6.60;;;0.80;99.90;;;;;;5046532;28;20233;-63
2023/04/04 01:24:55;;;;;;;6.67;6.30;;;0.80;99.90;;;;;;5051556;28;20179;-63
2023/04/04 01:27:21;;;;;;;6.63;6.33;;;0.80;99.90;;;;;;5036612;28;20254;-63
2023/04/04 01:29:46;;;;;;;6.60;6.20;;;0.70;99.90;;;;;;5031438;28;20681;-63
2023/04/04 01:32:18;;;;;;;6.40;5.90;;;0.70;99.90;;;;;;5044184;28;20182;-63
2023/04/04 01:34:48;;;;;;;6.20;5.90;;;0.70;99.90;;;;;;5051404;28;20163;-63
2023/04/04 01:37:14;;;;;;;6.77;6.20;;;0.70;99.90;;;;;;5060086;23;20293;-87
2023/04/04 01:39:55;;;;;;;11.77;11.17;;;0.70;99.90;;;;;;5056276;28;20782;-87
2023/04/04 01:42:22;;;;;;;6.90;6.60;;;0.70;99.90;;;;;;5056679;28;20256;-86
2023/04/04 01:44:56;;;;;;;6.57;6.27;;;0.70;99.90;;;;;;5056309;28;20181;-86
2023/04/04 01:47:22;;;;;;;6.73;6.43;;;0.60;99.90;;;;;;5055719;28;20606;-86
2023/04/04 01:49:48;;;;;;;6.67;6.37;;;0.60;99.90;;;;;;5055542;28;20175;-87
2023/04/04 01:52:15;;;;;;;6.57;6.23;;;0.60;99.90;;;;;;5034981;28;20275;-86
2023/04/04 01:54:41;;;;;;;7.40;7.10;;;0.60;99.90;;;;;;5016181;28;20178;-86
2023/04/04 01:57:07;;;;;;;7.23;6.83;;;0.60;99.90;;;;;;5024702;28;20195;-86
2023/04/04 01:59:33;;;;;;;7.27;6.97;;;0.50;99.90;;;;;;5036577;28;20218;-86
2023/04/04 02:02:00;;;;;;;7.57;7.17;;;0.50;99.90;;;;;;5016246;28;20267;-86
2023/04/04 02:04:25;;;;;;;6.87;6.47;;;0.40;99.90;;;;;;5014603;28;20237;-86
2023/04/04 02:07:19;;;;;;;7.43;7.13;;;0.40;99.90;;;;;;5019731;28;20203;-92
2023/04/04 02:10:13;;;;;;;6.53;6.23;;;0.50;99.90;;;;;;5054617;28;20243;-91
2023/04/04 02:12:48;;;;;;;6.00;5.70;;;0.40;99.90;;;;;;5058832;28;20195;-91
2023/04/04 02:15:43;;;;;;;10.00;6.43;;;0.30;99.90;;;;;;5059259;28;20211;-91
2023/04/04 02:18:54;;;;;;;6.90;6.57;;;0.30;99.90;;;;;;5057018;28;20202;-90
2023/04/04 02:22:11;;;;;;;7.17;6.77;;;0.30;99.90;;;;;;5059291;28;20190;-89
2023/04/04 02:25:30;;;;;;;6.67;6.27;;;0.30;99.90;;;;;;5053678;28;20172;-88
2023/04/04 02:28:10;;;;;;;6.90;6.50;;;0.30;99.90;;;;;;5038604;28;20187;-90
2023/04/04 02:30:46;;;;;;;6.10;5.70;;;0.30;99.90;;;;;;5038604;28;20184;-92
2023/04/04 02:33:25;;;;;;;6.57;6.17;;;0.30;99.90;;;;;;5038855;28;20183;-90
2023/04/04 02:36:01;;;;;;;7.13;6.67;;;0.30;99.90;;;;;;5039009;28;20211;-90
2023/04/04 02:38:33;;;;;;;6.50;6.20;;;0.50;99.90;;;;;;5038737;28;20188;-91
2023/04/04 02:41:16;;;;;;;5.90;5.70;;;0.40;99.90;;;;;;5040989;28;20187;-91
2023/04/04 02:44:07;;;;;;;6.97;6.47;;;0.40;99.90;;;;;;5040330;28;20195;-92
2023/04/04 02:46:53;;;;;;;6.20;5.90;;;0.40;99.90;;;;;;5051314;28;20230;-91
2023/04/04 02:49:43;;;;;;;6.87;6.57;;;0.30;99.90;;;;;;5059144;28;20156;-90
2023/04/04 02:52:15;;;;;;;6.53;6.23;;;0.20;99.90;;;;;;5058240;28;20159;-88
2023/04/04 02:54:57;;;;;;;6.03;5.73;;;0.20;99.90;;;;;;5055754;28;20172;-90
2023/04/04 02:57:44;;;;;;;6.43;6.13;;;0.10;99.90;;;;;;5038845;28;20207;-89
2023/04/04 03:00:58;;;;;;;6.10;5.80;;;0.00;99.90;;;;;;5044448;28;20183;-92
2023/04/04 03:03:39;;;;;;;6.27;5.90;;;0.00;99.90;;;;;;5058042;28;20267;-91
2023/04/04 03:06:13;;;;;;;5.97;5.77;;;0.00;99.90;;;;;;5030781;28;20183;-92
2023/04/04 03:11:52;;;;;;;6.10;5.80;;;-0.10;99.90;;;;;;5059168;28;20186;-91
2023/04/04 03:14:39;;;;;;;5.90;5.70;;;-0.20;99.90;;;;;;5058423;28;20167;-89
2023/04/04 03:17:14;;;;;;;6.40;6.10;;;-0.20;99.90;;;;;;5053351;28;20208;-90
2023/04/04 03:19:59;;;;;;;6.33;6.13;;;-0.20;99.90;;;;;;5037535;28;20180;-87
2023/04/04 03:22:55;;;;;;;6.40;6.10;;;-0.20;99.90;;;;;;5056347;28;20226;-92
2023/04/04 03:25:43;;;;;;;7.23;6.93;;;-0.30;99.90;;;;;;5058040;28;20222;-90
2023/04/04 03:28:51;;;;;;;7.00;6.70;;;-0.40;99.90;;;;;;5058019;28;20171;-90
2023/04/04 03:31:23;;;;;;;6.13;5.83;;;-0.40;99.90;;;;;;5041819;28;20240;-91
2023/04/04 03:33:54;;;;;;;6.73;6.43;;;-0.40;99.90;;;;;;5036927;28;20192;-91
2023/04/04 03:37:07;;;;;;;7.00;6.60;;;-0.40;99.90;;;;;;5013528;28;20208;-90
2023/04/04 03:40:17;;;;;;;6.70;6.40;;;-0.40;99.90;;;;;;5058236;28;20195;-91
2023/04/04 03:42:57;;;;;;;7.23;6.83;;;-0.40;99.90;;;;;;5063901;28;20220;-88
2023/04/04 03:45:39;;;;;;;7.53;7.23;;;-0.50;99.90;;;;;;5056790;28;20183;-91
2023/04/04 03:48:33;;;;;;;7.60;7.23;;;-0.50;1.00;;;;;;5076506;28;20166;-91
2023/04/04 03:51:30;;;;;;;7.43;6.93;;;-0.50;1.00;;;;;;5043784;28;20167;-91
2023/04/04 03:53:59;;;;;;;7.03;6.47;;;-0.60;1.00;;;;;;5047215;28;20236;-92
2023/04/04 03:57:10;;;;;;;7.53;7.07;;;-0.60;1.00;;;;;;5053664;28;20361;-91
2023/04/04 04:00:05;;;;;;;6.83;6.40;;;-0.60;1.00;;;;;;5066130;28;20198;-90
2023/04/04 04:03:09;;;;;;;6.97;6.53;;;-0.60;1.00;;;;;;5059342;28;20207;-85
2023/04/04 04:06:21;;;;;;;6.60;6.30;;;-0.60;1.00;;;;;;5074527;28;20238;-82
2023/04/04 04:11:15;;;;;;;6.93;6.53;;;-0.60;1.00;;;;;;5069832;28;20232;-62
2023/04/04 04:13:40;;;;;;;6.83;6.53;;;-0.70;1.00;;;;;;5073395;28;20208;-64
2023/04/04 04:16:06;;;;;;;7.67;7.30;;;-0.70;1.00;;;;;;5072252;28;20558;-64
2023/04/04 04:18:32;;;;;;;6.67;6.37;;;-0.80;1.00;;;;;;5072936;28;20205;-64
2023/04/04 04:20:58;;;;;;;6.93;6.63;;;-0.80;1.00;;;;;;5072355;28;20322;-64
2023/04/04 04:23:24;;;;;;;6.83;6.53;;;-0.80;68.70;;;;;;5073252;28;20544;-63
2023/04/04 04:25:50;;;;;;;7.47;7.17;;;-0.80;99.90;;;;;;5072544;28;20197;-63
2023/04/04 04:28:16;;;;;;;7.00;6.63;;;-0.80;99.90;;;;;;5073023;28;20162;-63
2023/04/04 04:30:43;;;;;;;6.83;6.53;;;-0.80;99.90;;;;;;5072090;28;20194;-62
2023/04/04 04:33:08;;;;;;;7.13;6.83;;;-0.90;99.90;;;;;;5072571;28;20193;-63
2023/04/04 04:35:38;;;;;;;7.40;7.10;;;-0.90;99.90;;;;;;5072132;28;20225;-63
2023/04/04 04:38:05;;;;;;;7.43;7.13;;;-0.90;99.90;;;;;;5072258;28;20166;-63
2023/04/04 04:40:31;;;;;;;7.00;6.70;;;-0.90;99.90;;;;;;5070768;28;20235;-63
2023/04/04 04:42:56;;;;;;;8.10;7.70;;;-0.90;99.90;;;;;;5072299;28;20197;-63
2023/04/04 04:45:22;;;;;;;7.90;7.50;;;-0.90;99.90;;;;;;5071902;28;20170;-63
2023/04/04 04:47:48;;;;;;;8.03;7.37;;;-0.90;99.90;;;;;;5072277;28;20227;-63
2023/04/04 04:50:15;;;;;;;7.00;6.70;;;-0.90;99.90;;;;;;5071556;28;20174;-63
2023/04/04 04:52:40;;;;;;;7.03;6.73;;;-0.90;99.90;;;;;;5072448;28;20639;-65
2023/04/04 04:55:07;;;;;;;7.17;6.87;;;-0.90;99.90;;;;;;5071867;28;20181;-63
2023/04/04 04:57:33;;;;;;;7.13;6.83;;;-1.00;99.90;;;;;;5072146;28;20190;-63
2023/04/04 05:00:00;;;;;;;7.07;6.67;;;-1.00;99.90;;;;;;5071305;28;20528;-63
2023/04/04 05:02:26;;;;;;;7.60;7.30;;;-1.00;99.90;;;;;;5071900;28;20198;-63
2023/04/04 05:04:52;;;;;;;7.27;6.97;;;-1.10;99.90;;;;;;5071891;28;20268;-63
2023/04/04 05:07:17;;;;;;;7.00;6.70;;;-1.10;1.00;;;;;;5071894;28;20651;-63
2023/04/04 05:09:43;;;;;;;7.53;7.23;;;-1.10;1.00;;;;;;5071454;28;20178;-63
2023/04/04 05:12:08;;;;;;;7.03;6.73;;;-1.10;1.00;;;;;;5071654;28;20174;-63
2023/04/04 05:14:34;;;;;;;7.20;6.87;;;-1.10;1.00;;;;;;5071779;28;20178;-63
2023/04/04 05:17:00;;;;;;;6.67;6.37;;;-1.20;1.00;;;;;;5071703;28;20669;-63
2023/04/04 05:19:26;;;;;;;6.83;6.53;;;-1.20;1.00;;;;;;5071584;28;20176;-62
2023/04/04 05:21:52;;;;;;;7.53;7.07;;;-1.20;99.90;;;;;;5071633;28;20171;-63
2023/04/04 05:24:18;;;;;;;7.47;7.10;;;-1.20;99.90;;;;;;5071483;28;20169;-62
2023/04/04 05:26:44;;;;;;;7.80;7.40;;;-1.20;1.00;;;;;;5071684;28;20186;-63
2023/04/04 05:29:10;;;;;;;7.70;7.20;;;-1.20;99.90;;;;;;5071359;28;20178;-62
2023/04/04 05:31:35;;;;;;;7.77;7.37;;;-1.20;1.00;;;;;;5071614;28;20534;-63
2023/04/04 05:34:06;;;;;;;7.97;7.57;;;-1.20;1.00;;;;;;5071367;28;20174;-64
2023/04/04 05:36:36;;;;;;;8.33;7.93;;;-1.20;1.00;;;;;;5071737;28;20251;-63
2023/04/04 05:39:05;;;;;;;8.37;7.73;;;-1.10;1.00;;;;;;5071225;28;20185;-63
2023/04/04 05:41:31;;;;;;;8.43;7.83;;;-1.10;10.10;;;;;;5071585;28;20166;-63
2023/04/04 05:43:57;;;;;;;8.53;8.03;;;-1.10;99.90;;;;;;5071195;28;20212;-63
2023/04/04 05:46:23;;;;;;;8.37;7.93;;;-1.00;1.00;;;;;;5071298;28;20186;-63
2023/04/04 05:48:49;;;;;;;7.80;7.47;;;-0.90;99.90;;;;;;5071313;28;20182;-63
2023/04/04 05:51:15;;;;;;;8.13;7.73;;;-0.80;99.90;;;;;;5070953;28;20538;-63
2023/04/04 05:53:41;;;;;;;7.63;7.13;;;-0.70;99.90;;;;;;5071953;28;20189;-63
2023/04/04 05:56:07;;;;;;;7.80;7.50;;;-0.60;1.00;;;;;;5071018;28;20190;-63
2023/04/04 05:58:32;;;;;;;9.30;8.80;;;-0.50;1.00;;;;;;5071560;28;20213;-63
2023/04/04 06:00:58;;;;;;;8.17;7.67;;;-0.50;1.00;;;;;;5070896;28;20643;-63
2023/04/04 06:03:24;;;;;;;7.13;6.83;;;-0.40;1.00;;;;;;5070938;28;20233;-63
2023/04/04 06:05:51;;;;;;;8.23;7.70;;;-0.30;77.30;;;;;;5070511;28;20221;-63
2023/04/04 06:08:17;;;;;;;9.10;7.93;;;-0.20;99.90;;;;;;5071260;28;20249;-63
2023/04/04 06:10:43;;;;;;;6.83;6.53;;;-0.20;99.90;;;;;;5071016;28;20269;-63
2023/04/04 06:13:08;;;;;;;6.50;6.20;;;0.00;99.90;;;;;;5071009;28;20185;-63
2023/04/04 06:15:34;;;;;;;6.87;6.47;;;0.10;1.00;;;;;;5069550;28;20217;-63
2023/04/04 06:17:59;;;;;;;7.20;6.80;;;0.20;1.00;;;;;;5069239;28;20174;-63
2023/04/04 06:20:25;;;;;;;7.10;6.77;;;0.20;1.00;;;;;;5070763;28;20171;-63
2023/04/04 06:22:51;;;;;;;6.67;6.33;;;0.40;1.00;;;;;;5070830;28;20206;-63
2023/04/04 06:25:17;;;;;;;8.00;7.47;;;0.60;89.20;;;;;;5069340;28;20185;-63
2023/04/04 06:27:43;;;;;;;6.93;6.53;;;1.00;71.80;;;;;;5070833;28;20568;-63
2023/04/04 06:30:09;;;;;;;7.33;6.93;;;1.60;1.00;;;;;;5070435;28;20166;-64
2023/04/04 06:32:35;;;;;;;8.47;7.87;;;2.40;1.00;;;;;;5071000;28;20217;-63
2023/04/04 06:35:00;;;;;;;7.30;6.90;;;3.10;1.00;;;;;;5070806;28;20194;-64
2023/04/04 06:37:26;;;;;;;6.83;6.33;;;3.90;1.00;;;;;;5070596;28;20316;-64
2023/04/04 06:39:52;;;;;;;6.87;6.37;;;4.30;99.90;;;;;;5070782;28;20265;-64
2023/04/04 06:42:18;;;;;;;9.33;5.87;;;4.70;99.90;;;;;;5070143;28;20229;-64
2023/04/04 06:44:43;;;;;;;6.40;6.00;;;4.80;99.90;;;;;;5070872;28;20173;-64
2023/04/04 06:47:09;;;;;;;5.47;5.07;;;5.10;99.90;;;;;;5070230;28;20202;-64
2023/04/04 06:49:34;;;;;;;6.03;5.37;;;5.30;99.90;;;;;;5070555;28;20174;-63
2023/04/04 06:52:00;;;;;;;5.43;5.00;;;5.40;99.90;;;;;;5070260;28;20203;-64
2023/04/04 06:54:26;;;;;;;5.40;5.20;;;5.20;99.90;;;;;;5070578;28;20253;-64
2023/04/04 06:56:51;;;;;;;4.93;4.63;;;5.30;99.90;;;;;;5070440;28;20198;-63
2023/04/04 06:59:17;;;;;;;4.90;4.60;;;5.50;99.90;;;;;;5073154;28;20174;-64
2023/04/04 07:01:43;;;;;;;5.37;5.07;;;5.70;99.90;;;;;;5072716;28;20189;-63
2023/04/04 07:04:09;;;;;;;5.30;5.00;;;6.20;99.90;;;;;;5074480;28;20193;-64
2023/04/04 07:06:35;;;;;;;5.30;5.00;;;6.90;99.90;;;;;;5073737;28;20193;-64
2023/04/04 07:09:03;;;;;;;5.70;5.30;;;7.50;99.90;;;;;;5073631;28;20174;-64
2023/04/04 07:11:29;;;;;;;5.23;4.73;;;7.90;99.90;;;;;;5065749;28;20186;-64
2023/04/04 07:13:55;;;;;;;4.90;4.50;;;8.40;99.90;;;;;;5074162;28;20583;-64
2023/04/04 07:16:20;;;;;;;4.90;4.60;;;8.60;99.90;;;;;;5073420;28;20190;-64
2023/04/04 07:18:46;;;;;;;4.70;4.40;;;8.70;99.90;;;;;;5073572;28;20640;-64
2023/04/04 07:21:12;;;;;;;4.60;4.30;;;9.00;99.90;;;;;;5072460;28;20227;-64
2023/04/04 07:23:38;;;;;;;4.10;3.90;;;9.10;99.90;;;;;;5073795;28;20280;-64
2023/04/04 07:26:03;;;;;;;4.67;4.37;;;9.20;99.90;;;;;;5073556;28;20269;-64
2023/04/04 07:28:30;;;;;;;4.40;4.10;;;9.30;99.90;;;;;;5073930;28;20166;-64
2023/04/04 07:30:59;;;;;;;4.27;3.97;;;9.10;99.90;;;;;;5073305;28;20191;-64
2023/04/04 07:33:26;;;;;;;4.63;4.40;;;9.20;99.90;;;;;;5052956;28;20171;-64
2023/04/04 07:35:52;;;;;;;4.50;4.20;;;9.10;99.90;;;;;;5053561;28;20218;-64
2023/04/04 07:38:17;;;;;;;5.53;4.23;;;9.00;99.90;;;;;;5053231;28;20178;-63
2023/04/04 07:40:43;;;;;;;4.47;4.20;;;9.00;99.90;;;;;;5053094;28;20171;-64
2023/04/04 07:43:08;;;;;;;4.73;4.27;;;8.90;99.90;;;;;;5053258;28;20198;-64
2023/04/04 07:45:34;;;;;;;4.03;3.83;;;9.10;99.90;;;;;;5053337;28;20191;-64
2023/04/04 07:48:00;;;;;;;4.30;3.97;;;9.50;99.90;;;;;;5053197;28;20292;-64
2023/04/04 07:50:26;;;;;;;4.30;4.10;;;9.70;99.90;;;;;;5053020;28;20169;-64
2023/04/04 07:52:54;;;;;;;4.23;4.03;;;9.90;99.90;;;;;;5068911;28;20179;-64
2023/04/04 07:55:23;;;;;;;4.00;3.77;;;10.30;99.90;;;;;;5073054;28;20311;-64
2023/04/04 07:57:49;;;;;;;4.20;3.90;;;10.40;99.90;;;;;;5073171;28;20174;-64
2023/04/04 08:00:18;;;;;;;4.20;4.00;;;10.60;99.90;;;;;;5072886;28;20178;-64
2023/04/04 08:02:44;;;;;;;4.00;3.80;;;10.30;99.90;;;;;;5067993;28;20213;-64
2023/04/04 08:05:10;;;;;;;4.00;3.70;;;10.60;99.90;;;;;;5053257;28;20171;-64
2023/04/04 08:07:35;;;;;;;4.50;4.10;;;10.90;99.90;;;;;;5059423;28;20190;-64
2023/04/04 08:10:01;;;;;;;4.63;4.27;;;11.20;99.90;;;;;;5071942;28;20282;-64
2023/04/04 08:12:26;;;;;;;3.90;3.70;;;11.40;99.90;;;;;;5072515;28;20520;-64
2023/04/04 08:14:52;;;;;;;5.17;4.10;;;11.50;99.90;;;;;;5072964;28;20639;-64
2023/04/04 08:17:19;;;;;;;4.10;3.80;;;11.50;99.90;;;;;;5072363;28;20573;-66
2023/04/04 08:19:45;;;;;;;4.30;4.00;;;11.40;99.90;;;;;;5071620;28;20168;-64
2023/04/04 08:22:11;;;;;;;4.47;4.07;;;11.30;99.90;;;;;;5072450;28;20178;-64
2023/04/04 08:24:36;;;;;;;4.70;4.30;;;11.40;99.90;;;;;;5069741;28;20182;-64
2023/04/04 08:27:03;;;;;;;4.30;4.07;;;11.50;99.90;;;;;;5072017;28;20217;-64
2023/04/04 08:29:31;;;;;;;3.90;3.70;;;11.40;99.90;;;;;;5071993;28;20269;-64
2023/04/04 08:31:57;;;;;;;4.17;3.87;;;11.30;99.90;;;;;;5072278;28;20162;-64
2023/04/04 08:34:22;;;;;;;4.20;4.00;;;11.60;99.90;;;;;;5071138;28;20584;-64
2023/04/04 08:36:48;;;;;;;3.87;3.67;;;11.70;99.90;;;;;;5070695;28;20190;-64
2023/04/04 08:39:13;;;;;;;4.00;3.80;;;11.90;99.90;;;;;;5071873;28;20635;-64
2023/04/04 08:41:44;;;;;;;4.10;3.80;;;11.70;99.90;;;;;;5072462;28;20171;-64
2023/04/04 08:44:16;;;;;;;4.50;4.10;;;11.60;99.90;;;;;;5072209;28;20198;-64
2023/04/04 08:46:42;;;;;;;4.33;4.03;;;11.40;99.90;;;;;;5072260;28;20182;-64
2023/04/04 08:49:10;;;;;;;4.03;3.70;;;11.60;99.90;;;;;;5072156;28;20624;-64
2023/04/04 08:51:37;;;;;;;4.30;4.00;;;11.70;99.90;;;;;;5072081;28;20170;-64
2023/04/04 08:54:03;;;;;;;3.97;3.77;;;11.60;99.90;;;;;;5071610;28;20177;-64
2023/04/04 08:56:29;;;;;;;4.87;3.93;;;11.70;99.90;;;;;;5069793;28;20535;-64
2023/04/04 08:58:55;;;;;;;3.97;3.73;;;11.30;99.90;;;;;;5071979;28;20177;-64
2023/04/04 09:01:21;;;;;;;3.93;3.73;;;11.50;99.90;;;;;;5071557;28;20253;-64
2023/04/04 09:03:49;;;;;;;4.13;3.83;;;11.80;99.90;;;;;;5071847;28;20275;-64
2023/04/04 09:06:18;;;;;;;6.60;4.07;;;11.90;99.90;;;;;;5071444;28;20190;-64
2023/04/04 09:08:44;;;;;;;4.27;3.70;;;11.90;99.90;;;;;;5071784;28;20644;-64
2023/04/04 09:11:12;;;;;;;3.60;3.40;;;11.80;99.90;;;;;;5071214;28;20294;-64
2023/04/04 09:13:39;;;;;;;3.80;3.60;;;11.50;99.90;;;;;;5072002;28;20257;-64
2023/04/04 09:16:04;;;;;;;4.10;3.90;;;11.90;99.90;;;;;;5071511;28;20182;-64
2023/04/04 09:18:30;;;;;;;3.67;3.37;;;12.20;99.90;;;;;;5071846;28;20231;-64
2023/04/04 09:20:56;;;;;;;4.23;3.50;;;12.60;99.90;;;;;;5070736;28;20166;-64
2023/04/04 09:23:22;;;;;;;4.27;3.63;;;12.50;99.90;;;;;;5071750;28;20202;-64
2023/04/04 09:25:53;;;;;;;4.30;3.90;;;12.00;99.90;;;;;;5071780;28;20182;-64
2023/04/04 09:28:19;;;;;;;4.00;3.80;;;11.50;99.90;;;;;;5069026;28;20189;-64
2023/04/04 09:30:48;;;;;;;3.83;3.63;;;11.50;99.90;;;;;;5071586;28;20165;-64
2023/04/04 09:33:15;;;;;;;3.63;3.43;;;11.50;99.90;;;;;;5071325;28;20558;-64
2023/04/04 09:36:09;;;;;;;4.07;3.77;;;11.80;99.90;;;;;;5071595;28;20653;-64
2023/04/04 09:38:37;;;;;;;8.63;3.63;;;11.40;99.90;;;;;;5070154;28;20552;-64
2023/04/04 09:41:07;;;;;;;3.80;3.60;;;11.70;99.90;;;;;;5060584;28;20201;-64
2023/04/04 09:43:32;;;;;;;3.80;3.50;;;12.10;99.90;;;;;;5051520;28;20205;-65
2023/04/04 09:45:59;;;;;;;3.83;3.63;;;12.70;99.90;;;;;;5068644;28;20609;-65
2023/04/04 09:48:29;;;;;;;5.13;4.63;;;12.90;99.90;;;;;;5069778;28;20178;-66
2023/04/04 09:50:59;;;;;;;4.30;3.90;;;12.90;99.90;;;;;;5070592;28;20677;-65
2023/04/04 09:53:25;;;;;;;3.93;3.63;;;12.60;99.90;;;;;;5070955;28;20174;-65
2023/04/04 09:55:53;;;;;;;4.00;3.80;;;12.80;99.90;;;;;;5071551;28;20200;-65
2023/04/04 09:58:30;;;;;;;4.10;3.80;;;12.80;99.90;;;;;;5070264;28;20639;-65
2023/04/04 10:00:59;;;;;;;3.63;3.40;;;13.30;99.90;;;;;;5050973;28;20175;-64
2023/04/04 10:03:26;;;;;;;3.60;3.40;;;13.70;99.90;;;;;;5050087;28;20298;-65
2023/04/04 10:06:11;;;;;;;4.10;3.77;;;13.60;99.90;;;;;;5051263;28;20270;-64
2023/04/04 10:08:39;;;;;;;3.97;3.77;;;12.90;99.90;;;;;;5070433;28;20184;-65
2023/04/04 10:11:05;;;;;;;4.00;3.70;;;12.90;99.90;;;;;;5069349;28;20194;-65
2023/04/04 10:13:34;;;;;;;4.20;3.90;;;13.20;99.90;;;;;;5071003;28;20188;-65
2023/04/04 10:16:02;;;;;;;4.27;4.03;;;12.90;99.90;;;;;;5070666;28;20267;-64
2023/04/04 10:18:29;;;;;;;3.83;3.53;;;13.00;99.90;;;;;;5071066;28;20173;-64
2023/04/04 10:20:57;;;;;;;3.77;3.57;;;12.70;99.90;;;;;;5070580;28;20240;-64
2023/04/04 10:23:26;;;;;;;4.27;3.83;;;12.40;99.90;;;;;;5071547;28;20296;-64
2023/04/04 10:25:53;;;;;;;6.80;4.40;;;12.10;99.90;;;;;;5070889;28;20206;-64
2023/04/04 10:28:20;;;;;;;4.40;4.10;;;11.90;99.90;;;;;;5071151;28;20225;-65
2023/04/04 10:31:03;;;;;;;4.30;3.90;;;11.80;99.90;;;;;;5070461;28;20643;-65
2023/04/04 10:33:52;;;;;;;4.10;3.87;;;12.20;99.90;;;;;;5074425;28;20174;-65
2023/04/04 10:36:26;;;;;;;4.27;3.97;;;12.30;99.90;;;;;;5073347;28;20210;-64
2023/04/04 10:39:01;;;;;;;3.70;3.50;;;12.40;99.90;;;;;;5074616;28;20198;-64
2023/04/04 10:41:31;;;;;;;4.17;3.87;;;12.80;99.90;;;;;;5074497;28;20174;-65
2023/04/04 10:44:00;;;;;;;4.43;4.20;;;13.20;99.90;;;;;;5073589;28;20340;-65
2023/04/04 10:46:29;;;;;;;4.40;4.00;;;13.70;99.90;;;;;;5074352;28;20552;-65
2023/04/04 10:48:57;;;;;;;4.20;3.80;;;13.90;99.90;;;;;;5074537;28;20169;-65
2023/04/04 10:51:23;;;;;;;5.47;4.13;;;13.70;99.90;;;;;;5073975;28;20178;-65
2023/04/04 10:53:50;;;;;;;4.23;3.83;;;13.70;99.90;;;;;;5074572;28;20176;-65
2023/04/04 10:56:16;;;;;;;4.33;4.13;;;13.50;99.90;;;;;;5073990;28;20194;-64
2023/04/04 10:58:43;;;;;;;4.93;4.63;;;13.40;99.90;;;;;;5074011;28;20209;-65
2023/04/04 11:01:09;;;;;;;5.83;4.23;;;12.80;99.90;;;;;;5073809;28;20174;-65
2023/04/04 11:04:12;;;;;;;4.40;4.10;;;12.40;99.90;;;;;;5074223;28;20677;-65
2023/04/04 11:07:04;;;;;;;4.17;3.97;;;12.30;99.90;;;;;;5073873;28;20266;-64
2023/04/04 11:09:48;;;;;;;4.70;4.40;;;12.60;99.90;;;;;;5073433;28;20182;-65
2023/04/04 11:12:22;;;;;;;4.30;4.00;;;12.60;99.90;;;;;;5073784;28;20166;-66
2023/04/04 11:15:08;;;;;;;8.60;4.40;;;13.10;99.90;;;;;;5074055;28;20166;-65
2023/04/04 11:17:53;;;;;;;4.73;4.30;;;13.50;99.90;;;;;;5073744;28;20200;-65
2023/04/04 11:20:33;;;;;;;4.60;4.30;;;13.90;99.90;;;;;;5073645;28;20556;-65
2023/04/04 11:23:06;;;;;;;3.83;3.63;;;14.20;99.90;;;;;;5072266;28;20229;-65
2023/04/04 11:25:36;;;;;;;4.50;4.30;;;14.30;99.90;;;;;;5073979;28;20174;-65
2023/04/04 11:28:07;;;;;;;4.83;4.43;;;13.90;99.90;;;;;;5073805;28;20178;-65
2023/04/04 11:30:46;;;;;;;4.70;4.40;;;13.80;99.90;;;;;;5072160;28;20566;-65
2023/04/04 11:33:12;;;;;;;4.50;4.20;;;13.40;99.90;;;;;;5071290;28;20589;-66
2023/04/04 11:35:39;;;;;;;4.47;4.17;;;13.00;99.90;;;;;;5073595;28;20196;-65
2023/04/04 11:38:13;;;;;;;4.40;4.10;;;12.90;99.90;;;;;;5073372;28;20659;-65
2023/04/04 11:40:53;;;;;;;4.20;3.93;;;12.90;99.90;;;;;;5073192;28;20197;-66
2023/04/04 11:43:19;;;;;;;4.40;4.10;;;13.00;99.90;;;;;;5072193;28;20265;-65
2023/04/04 11:45:45;;;;;;;6.03;4.20;;;12.90;99.90;;;;;;5073653;28;20190;-65
2023/04/04 11:48:14;;;;;;;4.00;3.80;;;13.10;99.90;;;;;;5072849;28;20189;-64
2023/04/04 11:50:41;;;;;;;5.73;4.03;;;13.30;99.90;;;;;;5073048;28;20257;-66
2023/04/04 11:53:08;;;;;;;4.37;4.07;;;13.50;99.90;;;;;;5073102;28;20185;-65
2023/04/04 11:55:40;;;;;;;4.40;4.10;;;13.50;99.90;;;;;;5073288;28;20198;-66
2023/04/04 11:58:10;;;;;;;4.50;4.20;;;13.20;99.90;;;;;;5071562;28;20190;-65
2023/04/04 12:00:38;;;;;;;4.43;4.17;;;13.10;99.90;;;;;;5072608;28;20174;-65
2023/04/04 12:03:11;;;;;;;4.70;4.30;;;13.00;99.90;;;;;;5073253;28;20194;-65
2023/04/04 12:05:42;;;;;;;4.37;3.97;;;12.70;99.90;;;;;;5072097;28;20221;-65
2023/04/04 12:08:09;;;;;;;4.23;4.03;;;12.60;99.90;;;;;;5072817;28;20640;-65
2023/04/04 12:10:37;;;;;;;4.43;4.13;;;12.50;99.90;;;;;;5072613;28;20193;-65
2023/04/04 12:13:07;;;;;;;4.53;4.23;;;12.80;99.90;;;;;;5072724;28;20189;-65
2023/04/04 12:15:35;;;;;;;5.60;4.30;;;13.10;99.90;;;;;;5072854;28;20263;-65
2023/04/04 12:18:02;;;;;;;4.33;4.03;;;13.50;99.90;;;;;;5072707;28;20180;-66
2023/04/04 12:20:29;;;;;;;4.37;4.07;;;13.80;99.90;;;;;;5072302;28;20198;-65
2023/04/04 12:22:55;;;;;;;4.80;4.40;;;14.00;99.90;;;;;;5072707;28;20190;-65
2023/04/04 12:25:22;;;;;;;4.60;4.30;;;14.10;99.90;;;;;;5072687;28;20527;-65
2023/04/04 12:27:49;;;;;;;4.20;3.80;;;13.50;99.90;;;;;;5072367;28;20182;-65
2023/04/04 12:30:16;;;;;;;4.10;3.90;;;13.20;99.90;;;;;;5072189;28;20714;-65
2023/04/04 12:32:44;;;;;;;4.80;4.50;;;13.00;99.90;;;;;;5072328;28;20182;-65
2023/04/04 12:35:14;;;;;;;4.50;4.20;;;13.20;99.90;;;;;;5072478;28;20182;-65
2023/04/04 12:37:56;;;;;;;4.53;4.30;;;13.70;99.90;;;;;;5069880;28;20174;-65
2023/04/04 12:40:22;;;;;;;4.93;4.10;;;14.20;99.90;;;;;;5072293;28;20174;-65
2023/04/04 12:42:48;;;;;;;4.63;4.33;;;14.30;99.90;;;;;;5071891;28;20201;-65
2023/04/04 12:45:13;;;;;;;4.10;3.87;;;14.30;99.90;;;;;;5072076;28;20531;-65
2023/04/04 12:47:54;;;;;;;4.73;4.43;;;14.50;99.90;;;;;;5071994;28;20186;-65
2023/04/04 12:50:22;;;;;;;4.90;4.50;;;14.50;99.90;;;;;;5071856;28;20193;-65
2023/04/04 12:52:52;;;;;;;4.43;4.13;;;14.60;99.90;;;;;;5072008;28;20178;-65
2023/04/04 12:55:21;;;;;;;4.73;4.33;;;15.00;99.90;;;;;;5071802;28;20198;-64
2023/04/04 12:57:47;;;;;;;4.53;4.10;;;15.20;99.90;;;;;;5071758;28;20170;-65
2023/04/04 13:00:13;;;;;;;4.37;4.17;;;15.20;99.90;;;;;;5071437;28;20315;-65
2023/04/04 13:02:45;;;;;;;8.37;3.80;;;15.50;99.90;;;;;;5071565;28;20201;-65
2023/04/04 13:05:11;;;;;;;5.70;4.13;;;15.50;99.90;;;;;;5071694;28;20171;-65
2023/04/04 13:07:42;;;;;;;5.37;4.60;;;15.70;99.90;;;;;;5071558;28;20194;-64
2023/04/04 13:10:09;;;;;;;4.60;4.30;;;15.60;99.90;;;;;;5069314;28;20561;-64
2023/04/04 13:12:57;;;;;;;4.37;4.07;;;15.20;99.90;;;;;;5071824;28;20181;-65
2023/04/04 13:15:43;;;;;;;6.33;4.27;;;14.90;99.90;;;;;;5071692;28;20204;-64